Time;durP1;ratioP1;P1;durP2;ratioP2;P2;SDS_P1;SDS_P2;PMS_P1;PMS_P2;Temp;Humidity;BMP_temperature;BMP_pressure;BME280_temperature;BME280_humidity;BME280_pressure;Samples;Min_cycle;Max_cycle;Signal;HPM_P1;HPM_P2
2022/06/20 00:00:05;;;;;;;7.13;2.00;;;19.50;91.00;;;;;;6162016;23;20174;-94
2022/06/20 00:02:31;;;;;;;6.10;1.87;;;19.40;91.30;;;;;;6152846;23;20158;-95
2022/06/20 00:05:01;;;;;;;6.13;1.80;;;19.40;91.30;;;;;;6150853;23;20197;-93
2022/06/20 00:07:26;;;;;;;9.63;1.83;;;19.40;91.40;;;;;;6149989;23;20271;-95
2022/06/20 00:09:52;;;;;;;5.87;1.60;;;19.40;91.50;;;;;;6149905;23;20191;-93
2022/06/20 00:12:25;;;;;;;5.50;1.50;;;19.50;91.30;;;;;;6150331;23;20193;-93
2022/06/20 00:14:54;;;;;;;8.63;1.80;;;19.50;91.20;;;;;;6150570;23;20152;-94
2022/06/20 00:17:20;;;;;;;5.70;1.57;;;19.60;91.00;;;;;;6149452;23;20177;-93
2022/06/20 00:19:47;;;;;;;10.40;2.20;;;19.80;90.60;;;;;;6149773;23;20179;-93
2022/06/20 00:22:14;;;;;;;7.97;1.60;;;19.80;90.40;;;;;;6150130;23;20147;-93
2022/06/20 00:24:40;;;;;;;6.53;1.80;;;19.80;90.50;;;;;;6149472;23;20235;-93
2022/06/20 00:27:10;;;;;;;6.73;1.77;;;19.70;90.60;;;;;;6149821;23;20184;-93
2022/06/20 00:29:37;;;;;;;7.20;1.83;;;19.70;90.50;;;;;;6150643;23;20151;-92
2022/06/20 00:32:05;;;;;;;9.90;1.80;;;19.70;90.40;;;;;;6150008;23;20151;-94
2022/06/20 00:34:31;;;;;;;7.83;1.97;;;19.60;90.70;;;;;;6150479;23;20150;-94
2022/06/20 00:36:57;;;;;;;6.13;2.00;;;19.60;90.70;;;;;;6151338;23;20229;-93
2022/06/20 00:39:23;;;;;;;13.00;1.70;;;19.40;91.20;;;;;;6151383;23;20525;-93
2022/06/20 00:41:51;;;;;;;10.40;1.80;;;19.30;91.70;;;;;;6151698;23;20191;-94
2022/06/20 00:44:26;;;;;;;8.33;1.83;;;19.40;91.40;;;;;;6151529;23;20234;-94
2022/06/20 00:46:57;;;;;;;8.20;2.20;;;19.30;91.70;;;;;;6151562;23;20168;-93
2022/06/20 00:49:29;;;;;;;8.30;2.20;;;19.40;91.60;;;;;;6151469;23;20225;-93
2022/06/20 00:52:03;;;;;;;6.80;1.87;;;19.40;91.70;;;;;;6151629;23;20194;-94
2022/06/20 00:54:44;;;;;;;7.73;1.83;;;19.40;92.00;;;;;;6151083;23;20199;-94
2022/06/20 00:57:19;;;;;;;13.13;2.60;;;19.30;92.10;;;;;;6151086;23;20144;-93
2022/06/20 00:59:51;;;;;;;9.53;1.70;;;19.30;92.10;;;;;;6151487;23;20177;-93
2022/06/20 01:02:27;;;;;;;8.87;2.30;;;19.20;92.60;;;;;;6151831;23;20159;-94
2022/06/20 01:04:59;;;;;;;7.43;1.70;;;19.20;92.90;;;;;;6151043;23;20618;-93
2022/06/20 01:07:35;;;;;;;6.27;1.97;;;19.10;93.10;;;;;;6151955;23;20167;-93
2022/06/20 01:10:02;;;;;;;9.80;2.10;;;19.10;93.50;;;;;;6151821;23;20145;-93
2022/06/20 01:12:39;;;;;;;8.50;2.17;;;19.20;93.40;;;;;;6151410;23;20155;-93
2022/06/20 01:15:23;;;;;;;12.97;2.10;;;19.10;93.80;;;;;;6151378;23;20195;-94
2022/06/20 01:17:50;;;;;;;10.20;2.20;;;19.10;94.00;;;;;;6151361;23;20224;-94
2022/06/20 01:20:28;;;;;;;10.80;2.07;;;19.20;94.00;;;;;;6152226;23;20186;-93
2022/06/20 01:23:07;;;;;;;6.33;2.10;;;19.10;94.30;;;;;;6159737;23;20144;-93
2022/06/20 01:25:52;;;;;;;12.80;2.03;;;19.00;94.60;;;;;;6159446;23;20152;-92
2022/06/20 01:28:26;;;;;;;8.47;2.50;;;19.10;94.70;;;;;;6152701;23;20162;-91
2022/06/20 01:30:54;;;;;;;10.20;2.50;;;19.10;94.60;;;;;;6151587;23;20152;-94
2022/06/20 01:33:30;;;;;;;6.17;1.67;;;19.10;94.80;;;;;;6151271;23;20151;-94
2022/06/20 01:38:49;;;;;;;6.73;2.33;;;19.10;94.70;;;;;;6152127;23;20149;-94
2022/06/20 01:44:37;;;;;;;;;;;;;;;;;;;;;
2022/06/20 02:17:58;;;;;;;;;;;;;;;;;;;;;
2022/06/20 03:14:30;;;;;;;6.70;1.37;;;18.20;96.50;;;;;;6151811;22;20201;-95
2022/06/20 03:31:50;;;;;;;;;;;;;;;;;;;;;
2022/06/20 03:46:20;;;;;;;;;;;;;;;;;;;;;
2022/06/20 03:53:14;;;;;;;;;;;;;;;;;;;;;
2022/06/20 04:27:44;;;;;;;7.73;2.40;;;18.20;96.70;;;;;;6091369;23;20159;-96
2022/06/20 04:31:25;;;;;;;;;;;;;;;;;;;;;
2022/06/20 04:38:20;;;;;;;;;;;;;;;;;;;;;
2022/06/20 04:41:02;;;;;;;9.37;2.03;;;18.30;96.80;;;;;;6139319;23;20213;-96
2022/06/20 04:44:17;;;;;;;6.17;1.70;;;18.40;96.90;;;;;;6128327;23;20525;-96
2022/06/20 04:47:20;;;;;;;;;;;;;;;;;;;;;
2022/06/20 04:50:16;;;;;;;7.00;1.60;;;18.30;96.80;;;;;;6151607;23;20268;-96
2022/06/20 04:53:15;;;;;;;7.67;1.83;;;18.50;96.50;;;;;;6129917;23;20161;-96
2022/06/20 05:03:39;;;;;;;;;;;;;;;;;;;;;
2022/06/20 05:06:34;;;;;;;9.13;1.93;;;18.40;96.80;;;;;;6095182;23;20243;-96
2022/06/20 05:10:11;;;;;;;;;;;;;;;;;;;;;
2022/06/20 05:13:35;;;;;;;;;;;;;;;;;;;;;
2022/06/20 05:23:21;;;;;;;;;;;;;;;;;;;;;
2022/06/20 05:25:55;;;;;;;6.83;2.10;;;18.60;96.50;;;;;;6141314;23;20240;-96
2022/06/20 05:28:49;;;;;;;;;;;;;;;;;;;;;
2022/06/20 05:31:52;;;;;;;;;;;;;;;;;;;;;
2022/06/20 05:34:43;;;;;;;6.50;1.87;;;18.50;96.30;;;;;;6150342;23;20225;-94
2022/06/20 05:37:39;;;;;;;11.87;2.63;;;18.50;96.20;;;;;;6129097;23;20162;-93
2022/06/20 05:40:26;;;;;;;11.63;2.53;;;18.60;96.20;;;;;;6123344;23;20527;-91
2022/06/20 05:43:31;;;;;;;;;;;;;;;;;;;;;
2022/06/20 05:53:23;;;;;;;;;;;;;;;;;;;;;
2022/06/20 05:56:42;;;;;;;;;;;;;;;;;;;;;
2022/06/20 06:00:07;;;;;;;5.47;1.80;;;18.80;96.10;;;;;;6151600;23;20320;-95
2022/06/20 06:10:02;;;;;;;10.73;1.93;;;18.90;95.40;;;;;;6173068;23;20158;-93
2022/06/20 06:19:20;;;;;;;9.10;1.53;;;18.90;95.40;;;;;;6192743;23;20208;-96
2022/06/20 06:22:29;;;;;;;7.13;1.77;;;19.00;95.40;;;;;;6159323;23;20187;-96
2022/06/20 06:25:15;;;;;;;12.87;2.10;;;19.00;95.20;;;;;;6155015;23;20154;-95
2022/06/20 06:27:43;;;;;;;8.83;1.80;;;19.20;95.10;;;;;;6161824;22;20206;-96
2022/06/20 06:30:37;;;;;;;7.63;1.57;;;19.00;95.60;;;;;;6134216;23;20208;-96
2022/06/20 06:33:20;;;;;;;14.50;1.90;;;19.10;96.20;;;;;;6127433;23;20159;-93
2022/06/20 06:36:04;;;;;;;5.73;2.03;;;19.00;97.00;;;;;;6126971;23;20146;-95
2022/06/20 06:38:55;;;;;;;7.13;2.00;;;18.90;97.20;;;;;;6125338;23;20161;-86
2022/06/20 06:41:35;;;;;;;7.50;2.10;;;18.80;98.20;;;;;;6122284;23;20191;-90
2022/06/20 06:44:04;;;;;;;6.27;2.00;;;18.90;97.90;;;;;;6123488;23;20178;-88
2022/06/20 06:46:42;;;;;;;4.67;1.60;;;19.00;97.00;;;;;;6123483;23;20165;-87
2022/06/20 06:49:14;;;;;;;8.13;2.30;;;19.00;96.80;;;;;;6122846;23;20150;-88
2022/06/20 06:52:07;;;;;;;3.33;1.60;;;19.00;97.00;;;;;;6147421;23;20204;-86
2022/06/20 06:54:42;;;;;;;6.30;1.93;;;19.00;97.10;;;;;;6147553;23;20648;-88
2022/06/20 06:57:30;;;;;;;8.37;1.80;;;18.90;97.50;;;;;;6143968;22;20163;-88
2022/06/20 07:00:05;;;;;;;8.53;2.13;;;18.80;97.50;;;;;;6125474;23;20593;-88
2022/06/20 07:02:38;;;;;;;8.87;2.00;;;18.80;98.20;;;;;;6150147;23;20154;-88
2022/06/20 07:05:25;;;;;;;6.30;1.50;;;19.00;96.90;;;;;;6125632;23;20552;-88
2022/06/20 07:08:00;;;;;;;5.67;1.80;;;18.90;97.60;;;;;;6125750;23;20167;-87
2022/06/20 07:10:47;;;;;;;3.67;1.53;;;19.00;96.60;;;;;;6125583;23;20216;-87
2022/06/20 07:13:20;;;;;;;6.53;1.47;;;19.20;95.80;;;;;;6150520;22;20231;-88
2022/06/20 07:15:49;;;;;;;7.03;1.67;;;19.20;95.40;;;;;;6149821;23;20201;-88
2022/06/20 07:18:42;;;;;;;5.33;1.37;;;19.30;94.70;;;;;;6126032;23;20471;-88
2022/06/20 07:21:11;;;;;;;6.10;1.60;;;19.50;93.80;;;;;;6125672;23;20518;-89
2022/06/20 07:57:12;;;;;;;9.67;1.80;;;20.60;88.20;;;;;;6121395;23;20217;-87
2022/06/20 07:59:45;;;;;;;7.30;2.00;;;20.70;88.00;;;;;;6120506;23;20191;-87
2022/06/20 08:02:34;;;;;;;5.23;1.40;;;20.60;88.10;;;;;;6120308;23;20178;-87
2022/06/20 08:05:02;;;;;;;7.80;1.57;;;20.60;87.50;;;;;;6120262;23;20148;-88
2022/06/20 08:08:01;;;;;;;11.37;1.97;;;20.40;87.80;;;;;;6120555;23;20155;-88
2022/06/20 08:10:32;;;;;;;6.80;1.80;;;20.30;89.30;;;;;;6116976;23;20161;-88
2022/06/20 08:13:15;;;;;;;5.17;1.80;;;20.30;89.00;;;;;;6120221;23;20185;-87
2022/06/20 08:16:10;;;;;;;6.33;1.53;;;20.60;88.90;;;;;;6120121;23;20181;-88
2022/06/20 08:18:36;;;;;;;4.50;1.53;;;20.80;88.60;;;;;;6091283;23;20178;-88
2022/06/20 08:21:12;;;;;;;4.53;1.30;;;21.20;87.20;;;;;;6090818;23;20182;-90
2022/06/20 08:23:47;;;;;;;5.30;1.70;;;21.50;86.10;;;;;;6091098;23;20154;-87
2022/06/20 08:26:23;;;;;;;3.77;1.37;;;21.70;83.70;;;;;;6090625;23;20166;-87
2022/06/20 08:28:56;;;;;;;4.70;1.30;;;21.90;83.10;;;;;;6091071;23;20516;-87
2022/06/20 08:31:44;;;;;;;4.83;1.63;;;21.90;83.30;;;;;;6090886;23;20186;-86
2022/06/20 08:34:17;;;;;;;2.67;1.30;;;21.90;82.00;;;;;;6090747;23;20161;-88
2022/06/20 08:37:07;;;;;;;5.57;1.60;;;22.00;81.00;;;;;;6089696;23;20155;-87
2022/06/20 08:39:47;;;;;;;5.93;1.73;;;21.90;80.40;;;;;;6090964;23;20158;-87
2022/06/20 08:42:31;;;;;;;9.07;1.63;;;21.80;80.70;;;;;;6090393;23;20216;-88
2022/06/20 08:45:03;;;;;;;6.50;1.87;;;21.60;81.00;;;;;;6091426;23;20149;-87
2022/06/20 08:48:09;;;;;;;5.60;2.17;;;21.70;80.10;;;;;;6090559;23;20158;-87
2022/06/20 08:50:58;;;;;;;3.80;1.90;;;21.70;81.20;;;;;;6090880;23;20184;-89
2022/06/20 08:53:53;;;;;;;6.80;1.83;;;21.80;81.10;;;;;;6090702;23;20169;-88
2022/06/20 08:56:51;;;;;;;5.60;1.60;;;21.90;80.80;;;;;;6085556;23;20178;-87
2022/06/20 08:59:52;;;;;;;6.13;1.73;;;21.90;80.90;;;;;;6092424;23;20151;-86
2022/06/20 09:02:28;;;;;;;4.70;1.70;;;21.90;81.10;;;;;;6068200;23;20589;-86
2022/06/20 09:05:24;;;;;;;8.67;1.37;;;22.00;81.10;;;;;;6091733;23;20233;-86
2022/06/20 09:08:01;;;;;;;5.93;1.50;;;22.10;80.30;;;;;;6092171;23;20154;-87
2022/06/20 09:10:36;;;;;;;7.30;2.20;;;22.30;78.60;;;;;;6091972;23;20158;-86
2022/06/20 09:13:26;;;;;;;5.00;1.87;;;22.40;78.50;;;;;;6092167;23;20154;-87
2022/06/20 09:16:15;;;;;;;8.43;1.80;;;22.20;77.90;;;;;;6091922;23;20169;-87
2022/06/20 09:18:49;;;;;;;5.93;1.53;;;22.30;77.60;;;;;;6091916;23;20169;-87
2022/06/20 09:21:43;;;;;;;4.93;1.60;;;22.40;78.10;;;;;;6091814;23;20541;-87
2022/06/20 09:24:30;;;;;;;6.53;1.37;;;22.40;77.40;;;;;;6091923;23;20153;-87
2022/06/20 09:27:36;;;;;;;5.80;1.43;;;22.60;76.50;;;;;;6091922;23;20194;-87
2022/06/20 09:30:19;;;;;;;2.53;1.03;;;22.90;74.30;;;;;;6091737;23;20171;-86
2022/06/20 09:32:57;;;;;;;3.57;1.30;;;23.20;71.90;;;;;;6091837;23;20162;-87
2022/06/20 09:35:41;;;;;;;5.57;1.60;;;23.30;70.80;;;;;;6091403;23;20627;-86
2022/06/20 09:38:43;;;;;;;5.63;1.40;;;23.20;72.10;;;;;;6091791;23;20477;-86
2022/06/20 09:41:31;;;;;;;4.93;1.53;;;23.10;71.30;;;;;;6091559;23;20186;-86
2022/06/20 09:44:15;;;;;;;5.13;1.57;;;23.00;72.50;;;;;;6091926;23;20155;-86
2022/06/20 09:47:01;;;;;;;3.50;1.13;;;22.90;73.40;;;;;;6091461;23;20151;-86
2022/06/20 09:50:14;;;;;;;3.17;1.30;;;22.70;74.00;;;;;;6091670;23;20171;-87
2022/06/20 09:53:06;;;;;;;7.60;1.30;;;22.80;72.90;;;;;;6069266;23;20478;-86
2022/06/20 09:55:50;;;;;;;7.00;1.60;;;23.00;72.90;;;;;;6092065;23;20204;-87
2022/06/20 09:58:26;;;;;;;4.53;1.40;;;23.10;71.50;;;;;;6092067;23;20158;-85
2022/06/20 10:01:14;;;;;;;6.13;1.37;;;23.10;72.60;;;;;;6091565;23;20182;-86
2022/06/20 10:03:47;;;;;;;10.97;1.50;;;23.20;70.80;;;;;;6091529;23;20190;-87
2022/06/20 10:06:37;;;;;;;7.73;1.50;;;23.30;71.00;;;;;;6091643;23;20162;-85
2022/06/20 10:09:24;;;;;;;5.03;1.57;;;23.70;70.60;;;;;;6091698;23;20155;-86
2022/06/20 10:12:03;;;;;;;4.97;1.07;;;23.70;68.90;;;;;;6091755;23;20262;-86
2022/06/20 10:15:02;;;;;;;5.03;1.10;;;23.90;69.40;;;;;;6091094;23;20229;-86
2022/06/20 10:17:57;;;;;;;2.53;1.30;;;24.30;68.50;;;;;;6068843;23;20183;-87
2022/06/20 10:20:38;;;;;;;3.50;1.40;;;24.50;67.40;;;;;;6091451;23;20190;-88
2022/06/20 10:23:37;;;;;;;4.50;1.27;;;24.40;66.70;;;;;;6091974;23;20159;-86
2022/06/20 10:26:33;;;;;;;3.93;1.50;;;24.30;66.70;;;;;;6092025;23;20186;-87
2022/06/20 10:29:19;;;;;;;5.70;1.70;;;24.20;69.20;;;;;;6078641;23;20241;-87
2022/06/20 10:32:11;;;;;;;4.50;1.47;;;24.30;68.70;;;;;;6091855;23;20158;-87
2022/06/20 10:34:48;;;;;;;2.93;1.60;;;24.20;68.50;;;;;;6091641;23;20241;-86
2022/06/20 10:37:26;;;;;;;5.50;1.57;;;24.10;68.50;;;;;;6091168;23;20197;-87
2022/06/20 10:40:07;;;;;;;5.03;1.60;;;24.10;69.20;;;;;;6091870;23;20165;-89
2022/06/20 10:43:01;;;;;;;2.37;1.40;;;23.90;69.00;;;;;;6091325;23;20162;-87
2022/06/20 10:45:33;;;;;;;4.20;1.50;;;23.80;69.60;;;;;;6091294;23;20231;-87
2022/06/20 10:48:18;;;;;;;3.10;1.13;;;24.00;69.60;;;;;;6091607;23;20158;-89
2022/06/20 10:51:09;;;;;;;4.73;1.57;;;24.30;69.00;;;;;;6091530;23;20158;-86
2022/06/20 10:53:42;;;;;;;5.07;1.60;;;24.60;66.90;;;;;;6091678;23;20150;-87
2022/06/20 10:56:29;;;;;;;3.07;1.30;;;24.50;66.80;;;;;;6091266;23;20176;-87
2022/06/20 10:59:20;;;;;;;9.07;1.70;;;24.60;66.30;;;;;;6091462;23;20582;-88
2022/06/20 11:02:01;;;;;;;6.50;2.20;;;24.70;67.50;;;;;;6091545;23;20226;-87
2022/06/20 11:04:56;;;;;;;6.70;2.10;;;24.70;67.80;;;;;;6090716;23;20157;-86
2022/06/20 11:07:35;;;;;;;4.97;1.77;;;24.60;68.30;;;;;;6069563;23;20162;-87
2022/06/20 11:10:50;;;;;;;5.60;1.60;;;24.50;67.40;;;;;;6091272;23;20156;-87
2022/06/20 11:13:30;;;;;;;5.33;1.90;;;24.40;66.70;;;;;;6091071;23;20159;-89
2022/06/20 11:16:23;;;;;;;3.87;1.87;;;24.30;66.80;;;;;;6091162;23;20163;-87
2022/06/20 11:19:06;;;;;;;4.97;2.00;;;24.30;66.80;;;;;;6090880;23;20155;-87
2022/06/20 11:21:42;;;;;;;8.00;2.00;;;24.30;68.10;;;;;;6091486;23;20190;-88
2022/06/20 11:24:38;;;;;;;4.77;2.13;;;24.30;67.60;;;;;;6091510;23;20157;-88
2022/06/20 11:27:14;;;;;;;5.13;2.20;;;24.40;66.40;;;;;;6091522;23;20580;-87
2022/06/20 11:30:08;;;;;;;6.17;1.80;;;24.50;66.50;;;;;;6091271;23;20186;-87
2022/06/20 11:33:11;;;;;;;5.43;2.47;;;25.30;67.20;;;;;;6091409;23;20156;-89
2022/06/20 11:36:07;;;;;;;3.87;2.10;;;25.70;65.10;;;;;;6091173;23;20162;-87
2022/06/20 11:38:42;;;;;;;5.90;2.30;;;25.50;65.50;;;;;;6086246;23;20229;-88
2022/06/20 11:41:26;;;;;;;5.17;2.03;;;25.30;65.40;;;;;;6090710;23;20196;-87
2022/06/20 11:44:16;;;;;;;8.77;2.00;;;25.80;65.40;;;;;;6091148;23;20188;-88
2022/06/20 11:47:00;;;;;;;7.13;2.10;;;27.40;63.60;;;;;;6090716;23;20158;-88
2022/06/20 11:49:52;;;;;;;2.80;1.63;;;29.00;61.10;;;;;;6090856;23;20208;-91
2022/06/20 11:52:32;;;;;;;6.93;1.85;;;29.80;59.00;;;;;;6088519;23;20619;-88
2022/06/20 11:55:11;;;;;;;6.45;1.98;;;30.70;57.90;;;;;;6090111;23;20177;-88
2022/06/20 11:57:55;;;;;;;6.40;2.10;;;31.50;56.10;;;;;;6089647;23;20150;-88
2022/06/20 12:00:25;;;;;;;3.25;1.52;;;32.10;55.10;;;;;;6090447;23;20182;-88
2022/06/20 12:03:11;;;;;;;8.85;2.50;;;33.00;53.90;;;;;;6090421;23;20146;-89
2022/06/20 12:06:06;;;;;;;5.18;1.67;;;31.90;55.10;;;;;;6090377;23;20173;-89
2022/06/20 12:08:51;;;;;;;4.32;2.08;;;32.00;54.50;;;;;;6090749;23;20178;-88
2022/06/20 12:11:41;;;;;;;5.68;2.10;;;31.10;55.10;;;;;;6090166;23;20584;-87
2022/06/20 12:14:36;;;;;;;5.35;1.70;;;30.40;55.60;;;;;;6090269;23;20151;-88
2022/06/20 12:17:17;;;;;;;4.32;1.73;;;30.80;55.70;;;;;;6087100;23;20284;-88
2022/06/20 12:25:39;;;;;;;5.13;1.90;;;32.90;52.20;;;;;;6091650;23;20166;-88
2022/06/20 12:28:18;;;;;;;4.45;1.83;;;32.60;53.50;;;;;;6089920;23;20151;-88
2022/06/20 12:30:47;;;;;;;4.68;1.70;;;31.80;53.60;;;;;;6091004;23;20147;-88
2022/06/20 12:33:13;;;;;;;5.57;2.17;;;31.40;54.10;;;;;;6091309;23;20155;-87
2022/06/20 12:35:50;;;;;;;11.02;1.92;;;31.30;54.10;;;;;;6091220;23;20155;-88
2022/06/20 12:38:38;;;;;;;3.17;1.40;;;32.10;53.30;;;;;;6091246;23;20212;-89
2022/06/20 12:41:10;;;;;;;3.38;1.50;;;33.40;52.20;;;;;;6091270;23;20182;-88
2022/06/20 12:43:57;;;;;;;6.70;1.80;;;34.10;51.40;;;;;;6092134;23;20143;-88
2022/06/20 12:46:26;;;;;;;5.20;2.08;;;35.10;51.00;;;;;;6091620;23;20158;-88
2022/06/20 12:49:00;;;;;;;4.25;1.90;;;35.20;50.40;;;;;;6091928;23;20155;-88
2022/06/20 12:52:00;;;;;;;5.00;1.80;;;34.80;50.70;;;;;;6091775;23;20158;-88
2022/06/20 12:55:13;;;;;;;7.60;2.22;;;35.30;50.30;;;;;;6091300;23;20154;-88
2022/06/20 12:57:44;;;;;;;4.43;2.30;;;36.30;48.40;;;;;;6038397;23;20171;-87
2022/06/20 13:00:31;;;;;;;4.47;2.00;;;36.30;48.50;;;;;;6105972;23;20151;-88
2022/06/20 13:02:59;;;;;;;7.30;2.05;;;35.40;49.50;;;;;;6091432;23;20154;-88
2022/06/20 13:05:46;;;;;;;5.00;2.28;;;35.10;49.60;;;;;;6091960;23;20150;-87
2022/06/20 13:08:39;;;;;;;5.20;2.30;;;34.60;50.00;;;;;;6091433;23;20151;-87
2022/06/20 13:11:16;;;;;;;8.23;2.22;;;33.70;51.00;;;;;;6091841;23;20154;-88
2022/06/20 13:14:12;;;;;;;6.43;2.03;;;34.10;51.40;;;;;;6092072;23;20158;-88
2022/06/20 13:17:11;;;;;;;6.45;1.73;;;35.10;51.10;;;;;;6091434;23;20623;-87
2022/06/20 13:20:07;;;;;;;6.43;2.10;;;35.70;49.40;;;;;;6091922;23;20250;-87
2022/06/20 13:22:44;;;;;;;5.40;2.15;;;36.00;49.90;;;;;;6090702;23;20197;-88
2022/06/20 13:25:31;;;;;;;6.70;2.00;;;37.10;48.50;;;;;;6090609;23;20659;-89
2022/06/20 13:28:16;;;;;;;5.07;1.80;;;37.90;48.20;;;;;;6091047;23;20216;-88
2022/06/20 13:31:04;;;;;;;4.82;1.63;;;38.10;47.20;;;;;;6090979;23;20174;-87
2022/06/20 13:33:50;;;;;;;6.95;2.28;;;38.20;47.00;;;;;;6090948;23;20155;-88
2022/06/20 13:36:40;;;;;;;4.55;1.98;;;38.60;46.50;;;;;;6091446;23;20158;-88
2022/06/20 13:39:19;;;;;;;4.95;2.10;;;38.10;46.40;;;;;;6091056;23;20151;-87
2022/06/20 13:41:49;;;;;;;5.13;1.75;;;37.50;47.10;;;;;;6091358;23;20186;-88
2022/06/20 13:44:43;;;;;;;5.72;2.08;;;37.50;47.30;;;;;;6091335;23;20230;-88
2022/06/20 13:47:50;;;;;;;4.78;1.65;;;37.50;47.00;;;;;;6091488;23;20634;-88
2022/06/20 13:50:41;;;;;;;5.22;2.15;;;37.50;47.10;;;;;;6035441;23;20523;-89
2022/06/20 13:53:47;;;;;;;5.35;1.83;;;37.70;47.20;;;;;;6089739;23;20159;-94
2022/06/20 13:56:46;;;;;;;;;;;;;;;;;;;;;
2022/06/20 13:59:41;;;;;;;6.13;1.80;;;39.00;45.60;;;;;;6092195;23;20221;-94
2022/06/20 14:02:28;;;;;;;4.60;2.08;;;39.30;45.40;;;;;;6090680;23;20186;-95
2022/06/20 14:05:11;;;;;;;4.10;1.70;;;38.70;45.40;;;;;;6090625;23;20147;-95
2022/06/20 14:07:45;;;;;;;8.15;1.92;;;38.80;45.40;;;;;;6090499;23;20478;-95
2022/06/20 14:10:33;;;;;;;8.93;2.00;;;39.00;45.40;;;;;;6090741;23;20195;-94
2022/06/20 14:13:07;;;;;;;7.25;2.47;;;38.00;45.60;;;;;;6091098;23;20225;-95
2022/06/20 14:15:46;;;;;;;6.63;1.65;;;36.50;46.50;;;;;;6092041;23;20163;-94
2022/06/20 14:18:15;;;;;;;9.23;2.17;;;35.70;48.20;;;;;;6092009;23;20170;-95
2022/06/20 14:21:24;;;;;;;5.38;1.80;;;36.20;48.00;;;;;;6091363;23;20357;-94
2022/06/20 14:27:28;;;;;;;6.75;2.20;;;37.80;46.60;;;;;;6077631;23;20154;-93
2022/06/20 14:29:54;;;;;;;4.10;1.65;;;38.60;45.50;;;;;;6091556;23;20151;-96
2022/06/20 14:33:14;;;;;;;4.68;1.70;;;38.50;45.50;;;;;;6092009;23;20158;-94
2022/06/20 14:36:25;;;;;;;8.45;2.33;;;39.10;46.10;;;;;;6048450;23;20491;-93
2022/06/20 14:39:00;;;;;;;7.15;2.10;;;39.80;45.30;;;;;;6064914;23;20581;-94
2022/06/20 14:41:58;;;;;;;4.63;1.77;;;39.70;45.20;;;;;;6092038;23;20201;-94
2022/06/20 14:44:38;;;;;;;6.38;1.92;;;39.80;45.20;;;;;;6091857;23;20536;-92
2022/06/20 14:47:42;;;;;;;;;;;;;;;;;;;;;
2022/06/20 14:50:43;;;;;;;6.18;1.80;;;40.50;44.40;;;;;;6092465;23;20526;-94
2022/06/20 14:53:54;;;;;;;7.95;2.30;;;40.10;44.60;;;;;;6073287;23;20172;-94
2022/06/20 14:57:16;;;;;;;;;;;;;;;;;;;;;
2022/06/20 15:00:11;;;;;;;;;;;;;;;;;;;;;
2022/06/20 15:06:37;;;;;;;4.80;1.92;;;38.90;45.20;;;;;;6091529;23;20190;-94
2022/06/20 15:09:36;;;;;;;6.05;1.92;;;39.00;45.50;;;;;;6091707;23;20170;-94
2022/06/20 15:12:31;;;;;;;;;;;;;;;;;;;;;
2022/06/20 15:15:09;;;;;;;4.70;1.60;;;39.20;45.30;;;;;;6092326;23;20221;-94
2022/06/20 15:17:47;;;;;;;5.65;2.15;;;39.10;45.20;;;;;;6091331;23;20174;-94
2022/06/20 15:20:33;;;;;;;;;;;;;;;;;;;;;
2022/06/20 15:23:21;;;;;;;6.75;1.85;;;38.90;45.70;;;;;;6092834;23;20241;-94
2022/06/20 15:26:46;;;;;;;;;;;;;;;;;;;;;
2022/06/20 15:29:51;;;;;;;6.28;2.10;;;38.90;45.50;;;;;;6061746;23;20245;-94
2022/06/20 15:32:45;;;;;;;6.72;1.92;;;38.90;45.80;;;;;;6075338;23;20182;-93
2022/06/20 15:36:02;;;;;;;5.32;1.73;;;39.00;45.10;;;;;;6036559;23;20167;-94
2022/06/20 15:42:47;;;;;;;9.63;2.50;;;38.10;45.50;;;;;;6104734;23;20324;-90
2022/06/20 15:45:54;;;;;;;6.95;2.10;;;38.00;45.80;;;;;;6037632;23;20155;-93
2022/06/20 15:49:31;;;;;;;;;;;;;;;;;;;;;
2022/06/20 15:53:01;;;;;;;;;;;;;;;;;;;;;
2022/06/20 16:03:20;;;;;;;5.35;1.73;;;37.40;45.90;;;;;;5984487;23;20172;-90
2022/06/20 16:06:32;;;;;;;;;;;;;;;;;;;;;
2022/06/20 16:10:37;;;;;;;7.18;2.08;;;37.50;46.30;;;;;;6032344;23;20167;-91
2022/06/20 16:14:01;;;;;;;6.35;1.85;;;37.90;46.00;;;;;;6060073;23;20155;-89
2022/06/20 16:17:25;;;;;;;5.78;2.10;;;37.90;45.80;;;;;;6038517;23;20570;-91
2022/06/20 16:20:24;;;;;;;4.60;1.85;;;37.60;45.50;;;;;;6036839;23;20586;-91
2022/06/20 16:23:38;;;;;;;5.47;1.88;;;37.20;45.90;;;;;;6036449;23;20178;-91
2022/06/20 16:26:52;;;;;;;6.57;1.88;;;36.90;46.10;;;;;;5984849;23;20165;-92
2022/06/20 16:29:53;;;;;;;6.40;2.05;;;36.80;47.10;;;;;;6093110;23;20234;-92
2022/06/20 16:33:20;;;;;;;6.28;1.90;;;36.40;46.20;;;;;;6091934;23;20196;-92
2022/06/20 16:43:58;;;;;;;4.43;1.90;;;35.40;47.20;;;;;;6006161;23;20179;-93
2022/06/20 16:47:17;;;;;;;10.20;2.20;;;35.30;47.10;;;;;;6012580;23;20517;-92
